createdAt,value
2022-12-31T00:12:51.845Z,8.41
2022-12-31T00:23:30.813Z,8.45
2022-12-31T00:34:09.724Z,8.51
2022-12-31T00:39:28.675Z,8.52
2022-12-31T00:44:48.123Z,8.52
2022-12-31T00:50:06.845Z,8.55
2022-12-31T01:00:45.535Z,8.6
2022-12-31T01:06:04.414Z,8.62
2022-12-31T01:16:42.792Z,8.64
2022-12-31T01:22:02.010Z,8.67
2022-12-31T01:32:40.980Z,8.72
2022-12-31T01:38:00.051Z,8.72
2022-12-31T01:48:37.986Z,8.75
2022-12-31T02:04:36.577Z,8.78
2022-12-31T02:11:10.707Z,8.83
2022-12-31T02:15:15.371Z,8.85
2022-12-31T02:20:34.784Z,8.85
2022-12-31T02:25:53.024Z,8.88
2022-12-31T02:31:12.219Z,8.89
2022-12-31T02:47:08.947Z,8.88
2022-12-31T02:57:46.822Z,8.88
2022-12-31T03:03:06.040Z,8.85
2022-12-31T03:13:44.977Z,8.81
2022-12-31T03:29:42.519Z,8.81
2022-12-31T03:45:40.162Z,8.76
2022-12-31T03:56:19.066Z,8.76
2022-12-31T04:01:38.507Z,8.78
2022-12-31T04:12:16.114Z,8.81
2022-12-31T04:22:54.599Z,8.79
2022-12-31T04:28:13.896Z,8.79
2022-12-31T04:38:52.892Z,8.79
2022-12-31T04:44:11.857Z,8.81
2022-12-31T04:54:50.416Z,8.83
2022-12-31T05:00:09.775Z,8.79
2022-12-31T05:16:08.136Z,8.85
2022-12-31T05:21:26.872Z,8.85
2022-12-31T05:32:05.435Z,8.92
2022-12-31T05:37:25.229Z,8.91
2022-12-31T05:48:04.269Z,8.93
2022-12-31T05:58:42.984Z,8.96
2022-12-31T06:04:02.375Z,8.93
2022-12-31T06:14:45.514Z,8.99
2022-12-31T06:19:59.967Z,9.01
2022-12-31T06:30:37.546Z,9.05
2022-12-31T06:46:35.173Z,9.09
2022-12-31T07:02:33.586Z,9.13
2022-12-31T07:13:12.057Z,9.16
2022-12-31T07:18:30.950Z,9.18
2022-12-31T07:29:08.953Z,9.22
2022-12-31T07:34:28.028Z,9.22
2022-12-31T07:45:06.344Z,9.25
2022-12-31T07:55:44.603Z,9.3
2022-12-31T08:01:04.066Z,9.3
2022-12-31T08:11:42.181Z,9.35
2022-12-31T08:17:01.812Z,9.43
2022-12-31T08:22:21.429Z,9.46
2022-12-31T08:27:41.048Z,9.56
2022-12-31T08:38:20.312Z,9.59
2022-12-31T08:43:39.208Z,9.6
2022-12-31T08:54:17.457Z,9.67
2022-12-31T09:10:15.148Z,9.89
2022-12-31T09:20:53.732Z,10.08
2022-12-31T09:26:12.684Z,10.18
2022-12-31T09:36:51.753Z,10.44
2022-12-31T09:42:11.298Z,10.49
2022-12-31T09:52:49.509Z,10.65
2022-12-31T10:08:47.827Z,10.82
2022-12-31T10:14:07.204Z,10.83
2022-12-31T10:19:25.414Z,10.89
2022-12-31T10:24:44.508Z,10.91
2022-12-31T10:35:23.848Z,10.96
2022-12-31T10:51:21.281Z,11.12
2022-12-31T11:01:59.669Z,11.3
2022-12-31T11:07:18.937Z,11.39
2022-12-31T11:17:57.510Z,11.69
2022-12-31T11:23:17.168Z,11.8
2022-12-31T11:33:55.250Z,11.98
2022-12-31T11:44:33.162Z,12.05
2022-12-31T11:49:52.126Z,12.13
2022-12-31T11:55:11.711Z,12.17
2022-12-31T12:00:30.840Z,12.18
2022-12-31T12:11:09.002Z,12.25
2022-12-31T12:16:28.459Z,12.28
2022-12-31T12:21:47.520Z,12.31
2022-12-31T12:27:06.428Z,12.35
2022-12-31T12:37:44.834Z,12.42
2022-12-31T12:43:04.065Z,12.44
2022-12-31T13:09:39.860Z,12.39
2022-12-31T13:25:37.696Z,12.35
2022-12-31T13:31:23.013Z,12.42
2022-12-31T13:42:01.515Z,12.32
2022-12-31T13:52:39.638Z,12.26
2022-12-31T13:57:59.119Z,12.24
2022-12-31T14:08:38.865Z,12.2
2022-12-31T14:13:58.047Z,12.15
2022-12-31T14:24:35.403Z,12.06
2022-12-31T14:40:32.338Z,11.94
2022-12-31T14:51:10.072Z,11.85
2022-12-31T14:56:29.457Z,11.81
2022-12-31T15:07:08.143Z,11.74
2022-12-31T15:12:27.011Z,11.69
2022-12-31T15:23:05.291Z,11.59
2022-12-31T15:33:43.080Z,11.51
2022-12-31T15:39:02.698Z,11.46
2022-12-31T15:44:22.328Z,11.43
2022-12-31T15:49:41.733Z,11.39
2022-12-31T16:05:38.751Z,11.23
2022-12-31T16:21:35.914Z,11.12
2022-12-31T16:32:14.566Z,11.06
2022-12-31T16:37:34.069Z,11.02
2022-12-31T16:48:16.695Z,10.93
2022-12-31T16:53:31.589Z,10.92
2022-12-31T17:04:10.124Z,10.85
2022-12-31T17:14:48.674Z,10.79
2022-12-31T17:20:08.074Z,10.73
2022-12-31T17:30:46.651Z,10.71
2022-12-31T17:46:43.476Z,10.61
2022-12-31T17:57:21.531Z,10.55
2022-12-31T18:02:40.310Z,10.52
2022-12-31T18:13:18.959Z,10.46
2022-12-31T18:29:16.807Z,10.4
2022-12-31T18:39:56.081Z,10.37
2022-12-31T18:45:15.709Z,10.34
2022-12-31T18:50:34.839Z,10.3
2022-12-31T18:55:53.880Z,10.28
2022-12-31T19:06:31.884Z,10.22
2022-12-31T19:17:11.137Z,10.17
2022-12-31T19:22:30.734Z,10.17
2022-12-31T19:33:09.659Z,10.1
2022-12-31T19:38:28.901Z,10.08
2022-12-31T19:49:07.192Z,10.01
2022-12-31T19:59:45.904Z,9.97
2022-12-31T20:05:05.465Z,9.93
2022-12-31T20:15:43.823Z,9.89
2022-12-31T20:21:02.838Z,9.87
2022-12-31T20:31:41.041Z,9.83
2022-12-31T20:36:59.807Z,9.79
2022-12-31T20:47:38.062Z,9.79
2022-12-31T21:04:04.081Z,9.71
2022-12-31T21:14:15.439Z,9.68
2022-12-31T21:19:33.750Z,9.63
2022-12-31T21:30:19.838Z,9.63
2022-12-31T21:46:09.379Z,9.59
2022-12-31T21:56:48.347Z,9.54
2022-12-31T22:02:08.078Z,9.51
2022-12-31T22:07:27.360Z,9.5
2022-12-31T22:12:46.633Z,9.5
2022-12-31T22:18:05.301Z,9.43
2022-12-31T22:23:24.458Z,9.43
2022-12-31T22:28:43.529Z,9.39
2022-12-31T22:39:43.120Z,9.35
2022-12-31T22:44:41.247Z,9.35
2022-12-31T22:50:00.856Z,9.32
2022-12-31T22:55:19.964Z,9.29
2022-12-31T23:00:39.282Z,9.29
2022-12-31T23:11:17.594Z,9.27
2022-12-31T23:21:56.004Z,9.25
2022-12-31T23:27:14.958Z,9.2
2022-12-31T23:32:33.722Z,9.2
2022-12-31T23:37:53.229Z,9.2
2022-12-31T23:53:49.620Z,9.13
